sensor_id;sensor_type;location;lat;lon;timestamp;P1;durP1;ratioP1;P2;durP2;ratioP2
20110;SDS011;10216;42.658;23.248;2023-04-01T00:01:30;4.60;;;1.13;;
20110;SDS011;10216;42.658;23.248;2023-04-01T00:03:55;3.10;;;1.40;;
20110;SDS011;10216;42.658;23.248;2023-04-01T00:06:21;4.20;;;1.53;;
20110;SDS011;10216;42.658;23.248;2023-04-01T00:08:46;4.53;;;1.23;;
20110;SDS011;10216;42.658;23.248;2023-04-01T00:11:12;2.57;;;1.20;;
20110;SDS011;10216;42.658;23.248;2023-04-01T00:13:37;5.33;;;1.50;;
20110;SDS011;10216;42.658;23.248;2023-04-01T00:16:03;1.50;;;1.00;;
20110;SDS011;10216;42.658;23.248;2023-04-01T00:18:29;16.40;;;1.93;;
20110;SDS011;10216;42.658;23.248;2023-04-01T00:20:54;8.83;;;3.03;;
20110;SDS011;10216;42.658;23.248;2023-04-01T00:23:20;8.93;;;3.93;;
20110;SDS011;10216;42.658;23.248;2023-04-01T00:25:45;12.40;;;5.93;;
20110;SDS011;10216;42.658;23.248;2023-04-01T00:28:12;11.70;;;6.73;;
20110;SDS011;10216;42.658;23.248;2023-04-01T00:30:38;10.50;;;5.53;;
20110;SDS011;10216;42.658;23.248;2023-04-01T00:33:03;19.57;;;9.53;;
20110;SDS011;10216;42.658;23.248;2023-04-01T00:35:29;14.23;;;7.80;;
20110;SDS011;10216;42.658;23.248;2023-04-01T00:37:54;17.77;;;9.77;;
20110;SDS011;10216;42.658;23.248;2023-04-01T00:40:22;11.73;;;7.03;;
20110;SDS011;10216;42.658;23.248;2023-04-01T00:42:48;12.23;;;7.60;;
20110;SDS011;10216;42.658;23.248;2023-04-01T00:45:23;11.20;;;7.13;;
20110;SDS011;10216;42.658;23.248;2023-04-01T00:47:50;9.87;;;6.70;;
20110;SDS011;10216;42.658;23.248;2023-04-01T00:50:15;13.00;;;7.00;;
20110;SDS011;10216;42.658;23.248;2023-04-01T00:52:40;14.23;;;7.67;;
20110;SDS011;10216;42.658;23.248;2023-04-01T00:55:06;20.17;;;10.47;;
20110;SDS011;10216;42.658;23.248;2023-04-01T00:57:35;14.03;;;7.63;;
20110;SDS011;10216;42.658;23.248;2023-04-01T01:00:02;10.13;;;5.70;;
20110;SDS011;10216;42.658;23.248;2023-04-01T01:02:28;12.13;;;6.50;;
20110;SDS011;10216;42.658;23.248;2023-04-01T01:04:53;31.27;;;13.73;;
20110;SDS011;10216;42.658;23.248;2023-04-01T01:12:26;10.70;;;6.30;;
20110;SDS011;10216;42.658;23.248;2023-04-01T01:17:42;11.70;;;6.80;;
20110;SDS011;10216;42.658;23.248;2023-04-01T01:25:04;13.60;;;6.60;;
20110;SDS011;10216;42.658;23.248;2023-04-01T01:27:36;10.90;;;5.50;;
20110;SDS011;10216;42.658;23.248;2023-04-01T01:30:16;9.87;;;4.53;;
20110;SDS011;10216;42.658;23.248;2023-04-01T01:32:52;8.10;;;4.23;;
20110;SDS011;10216;42.658;23.248;2023-04-01T01:35:40;8.57;;;4.10;;
20110;SDS011;10216;42.658;23.248;2023-04-01T01:38:10;8.93;;;2.97;;
20110;SDS011;10216;42.658;23.248;2023-04-01T01:40:36;8.60;;;3.20;;
20110;SDS011;10216;42.658;23.248;2023-04-01T01:43:05;7.73;;;3.87;;
20110;SDS011;10216;42.658;23.248;2023-04-01T01:45:32;5.47;;;3.10;;
20110;SDS011;10216;42.658;23.248;2023-04-01T01:47:58;4.40;;;2.73;;
20110;SDS011;10216;42.658;23.248;2023-04-01T01:50:23;5.90;;;2.80;;
20110;SDS011;10216;42.658;23.248;2023-04-01T01:52:49;6.10;;;3.20;;
20110;SDS011;10216;42.658;23.248;2023-04-01T01:55:26;4.43;;;2.90;;
20110;SDS011;10216;42.658;23.248;2023-04-01T01:57:52;7.03;;;3.10;;
20110;SDS011;10216;42.658;23.248;2023-04-01T02:00:17;4.53;;;2.67;;
20110;SDS011;10216;42.658;23.248;2023-04-01T02:02:45;6.83;;;3.33;;
20110;SDS011;10216;42.658;23.248;2023-04-01T02:05:11;4.50;;;3.07;;
20110;SDS011;10216;42.658;23.248;2023-04-01T02:07:39;7.50;;;4.30;;
20110;SDS011;10216;42.658;23.248;2023-04-01T02:10:08;6.50;;;3.70;;
20110;SDS011;10216;42.658;23.248;2023-04-01T02:12:33;7.00;;;3.50;;
20110;SDS011;10216;42.658;23.248;2023-04-01T02:15:08;8.63;;;3.53;;
20110;SDS011;10216;42.658;23.248;2023-04-01T02:17:34;5.07;;;3.30;;
20110;SDS011;10216;42.658;23.248;2023-04-01T02:20:19;5.27;;;3.13;;
20110;SDS011;10216;42.658;23.248;2023-04-01T02:22:50;6.00;;;3.47;;
20110;SDS011;10216;42.658;23.248;2023-04-01T02:25:27;6.00;;;3.30;;
20110;SDS011;10216;42.658;23.248;2023-04-01T02:27:52;3.37;;;2.90;;
20110;SDS011;10216;42.658;23.248;2023-04-01T02:30:18;3.87;;;2.90;;
20110;SDS011;10216;42.658;23.248;2023-04-01T02:32:43;7.57;;;4.00;;
20110;SDS011;10216;42.658;23.248;2023-04-01T02:35:10;4.30;;;3.00;;
20110;SDS011;10216;42.658;23.248;2023-04-01T02:37:36;4.30;;;3.40;;
20110;SDS011;10216;42.658;23.248;2023-04-01T02:40:02;5.90;;;3.30;;
20110;SDS011;10216;42.658;23.248;2023-04-01T02:42:28;4.40;;;2.60;;
20110;SDS011;10216;42.658;23.248;2023-04-01T02:44:54;5.17;;;2.67;;
20110;SDS011;10216;42.658;23.248;2023-04-01T02:47:19;7.43;;;3.73;;
20110;SDS011;10216;42.658;23.248;2023-04-01T02:49:44;6.37;;;2.40;;
20110;SDS011;10216;42.658;23.248;2023-04-01T02:52:09;5.77;;;2.73;;
20110;SDS011;10216;42.658;23.248;2023-04-01T02:54:35;3.73;;;2.60;;
20110;SDS011;10216;42.658;23.248;2023-04-01T02:57:00;3.50;;;2.43;;
20110;SDS011;10216;42.658;23.248;2023-04-01T02:59:25;4.63;;;2.80;;
20110;SDS011;10216;42.658;23.248;2023-04-01T03:01:50;5.03;;;2.60;;
20110;SDS011;10216;42.658;23.248;2023-04-01T03:04:16;3.80;;;2.50;;
20110;SDS011;10216;42.658;23.248;2023-04-01T03:06:41;4.67;;;2.50;;
20110;SDS011;10216;42.658;23.248;2023-04-01T03:09:06;2.97;;;2.30;;
20110;SDS011;10216;42.658;23.248;2023-04-01T03:11:31;2.47;;;1.80;;
20110;SDS011;10216;42.658;23.248;2023-04-01T03:13:56;2.83;;;1.87;;
20110;SDS011;10216;42.658;23.248;2023-04-01T03:16:22;2.73;;;1.97;;
20110;SDS011;10216;42.658;23.248;2023-04-01T03:18:47;3.73;;;2.10;;
20110;SDS011;10216;42.658;23.248;2023-04-01T03:21:21;2.23;;;1.33;;
20110;SDS011;10216;42.658;23.248;2023-04-01T03:23:47;1.33;;;0.93;;
20110;SDS011;10216;42.658;23.248;2023-04-01T03:26:12;6.97;;;1.43;;
20110;SDS011;10216;42.658;23.248;2023-04-01T03:28:38;14.50;;;1.23;;
20110;SDS011;10216;42.658;23.248;2023-04-01T03:31:03;1.50;;;1.00;;
20110;SDS011;10216;42.658;23.248;2023-04-01T03:33:29;0.80;;;0.80;;
20110;SDS011;10216;42.658;23.248;2023-04-01T03:35:57;0.87;;;0.60;;
20110;SDS011;10216;42.658;23.248;2023-04-01T03:38:22;0.90;;;0.70;;
20110;SDS011;10216;42.658;23.248;2023-04-01T03:40:48;1.23;;;0.90;;
20110;SDS011;10216;42.658;23.248;2023-04-01T03:43:13;1.47;;;0.80;;
20110;SDS011;10216;42.658;23.248;2023-04-01T03:45:43;1.80;;;1.20;;
20110;SDS011;10216;42.658;23.248;2023-04-01T03:48:08;3.17;;;1.73;;
20110;SDS011;10216;42.658;23.248;2023-04-01T03:50:34;2.00;;;1.13;;
20110;SDS011;10216;42.658;23.248;2023-04-01T03:52:59;2.10;;;1.07;;
20110;SDS011;10216;42.658;23.248;2023-04-01T03:55:25;2.27;;;1.20;;
20110;SDS011;10216;42.658;23.248;2023-04-01T03:57:50;3.90;;;1.63;;
20110;SDS011;10216;42.658;23.248;2023-04-01T04:00:15;9.50;;;4.57;;
20110;SDS011;10216;42.658;23.248;2023-04-01T04:02:40;20.83;;;8.87;;
20110;SDS011;10216;42.658;23.248;2023-04-01T04:05:06;27.30;;;9.83;;
20110;SDS011;10216;42.658;23.248;2023-04-01T04:07:31;20.43;;;8.30;;
20110;SDS011;10216;42.658;23.248;2023-04-01T04:09:59;11.43;;;5.37;;
20110;SDS011;10216;42.658;23.248;2023-04-01T04:12:24;9.27;;;3.47;;
20110;SDS011;10216;42.658;23.248;2023-04-01T04:14:49;7.77;;;2.67;;
20110;SDS011;10216;42.658;23.248;2023-04-01T04:17:14;2.63;;;1.87;;
20110;SDS011;10216;42.658;23.248;2023-04-01T04:19:41;3.53;;;1.97;;
20110;SDS011;10216;42.658;23.248;2023-04-01T04:22:06;32.13;;;15.53;;
20110;SDS011;10216;42.658;23.248;2023-04-01T04:24:33;46.93;;;19.77;;
20110;SDS011;10216;42.658;23.248;2023-04-01T04:26:58;46.07;;;17.07;;
20110;SDS011;10216;42.658;23.248;2023-04-01T04:29:24;14.03;;;8.60;;
20110;SDS011;10216;42.658;23.248;2023-04-01T04:31:49;10.20;;;5.67;;
20110;SDS011;10216;42.658;23.248;2023-04-01T04:34:14;8.97;;;3.00;;
20110;SDS011;10216;42.658;23.248;2023-04-01T04:36:40;4.60;;;1.47;;
20110;SDS011;10216;42.658;23.248;2023-04-01T04:39:05;2.83;;;1.80;;
20110;SDS011;10216;42.658;23.248;2023-04-01T04:41:30;2.50;;;1.80;;
20110;SDS011;10216;42.658;23.248;2023-04-01T04:43:55;17.23;;;7.37;;
20110;SDS011;10216;42.658;23.248;2023-04-01T04:46:21;10.50;;;4.77;;
20110;SDS011;10216;42.658;23.248;2023-04-01T04:48:47;13.97;;;6.27;;
20110;SDS011;10216;42.658;23.248;2023-04-01T04:51:15;16.97;;;8.03;;
20110;SDS011;10216;42.658;23.248;2023-04-01T04:53:40;7.70;;;3.97;;
20110;SDS011;10216;42.658;23.248;2023-04-01T04:56:06;12.73;;;6.30;;
20110;SDS011;10216;42.658;23.248;2023-04-01T04:58:31;8.07;;;4.30;;
20110;SDS011;10216;42.658;23.248;2023-04-01T05:00:56;6.57;;;3.93;;
20110;SDS011;10216;42.658;23.248;2023-04-01T05:03:21;11.80;;;3.90;;
20110;SDS011;10216;42.658;23.248;2023-04-01T05:05:51;7.73;;;4.80;;
20110;SDS011;10216;42.658;23.248;2023-04-01T05:08:16;7.17;;;4.20;;
20110;SDS011;10216;42.658;23.248;2023-04-01T05:10:41;4.70;;;3.87;;
20110;SDS011;10216;42.658;23.248;2023-04-01T05:13:09;7.37;;;3.70;;
20110;SDS011;10216;42.658;23.248;2023-04-01T05:15:34;13.63;;;5.20;;
20110;SDS011;10216;42.658;23.248;2023-04-01T05:18:00;27.53;;;9.00;;
20110;SDS011;10216;42.658;23.248;2023-04-01T05:20:25;40.50;;;5.00;;
20110;SDS011;10216;42.658;23.248;2023-04-01T05:22:55;22.33;;;4.37;;
20110;SDS011;10216;42.658;23.248;2023-04-01T05:25:20;14.53;;;2.60;;
20110;SDS011;10216;42.658;23.248;2023-04-01T05:27:45;9.93;;;4.20;;
20110;SDS011;10216;42.658;23.248;2023-04-01T05:30:10;16.83;;;6.83;;
20110;SDS011;10216;42.658;23.248;2023-04-01T05:32:36;6.90;;;3.20;;
20110;SDS011;10216;42.658;23.248;2023-04-01T05:35:01;6.23;;;3.47;;
20110;SDS011;10216;42.658;23.248;2023-04-01T05:37:26;8.67;;;4.60;;
20110;SDS011;10216;42.658;23.248;2023-04-01T05:39:52;8.47;;;4.13;;
20110;SDS011;10216;42.658;23.248;2023-04-01T05:42:17;5.50;;;3.13;;
20110;SDS011;10216;42.658;23.248;2023-04-01T05:44:42;6.03;;;3.83;;
20110;SDS011;10216;42.658;23.248;2023-04-01T05:47:07;4.17;;;3.00;;
20110;SDS011;10216;42.658;23.248;2023-04-01T05:49:33;4.67;;;3.33;;
20110;SDS011;10216;42.658;23.248;2023-04-01T05:51:58;4.83;;;3.30;;
20110;SDS011;10216;42.658;23.248;2023-04-01T05:54:23;4.23;;;3.00;;
20110;SDS011;10216;42.658;23.248;2023-04-01T05:56:49;4.67;;;3.00;;
20110;SDS011;10216;42.658;23.248;2023-04-01T05:59:14;5.57;;;3.00;;
20110;SDS011;10216;42.658;23.248;2023-04-01T06:01:40;4.03;;;3.63;;
20110;SDS011;10216;42.658;23.248;2023-04-01T06:04:05;3.73;;;2.83;;
20110;SDS011;10216;42.658;23.248;2023-04-01T06:06:31;4.50;;;3.70;;
20110;SDS011;10216;42.658;23.248;2023-04-01T06:09:07;5.30;;;2.97;;
20110;SDS011;10216;42.658;23.248;2023-04-01T06:11:35;5.20;;;3.20;;
20110;SDS011;10216;42.658;23.248;2023-04-01T06:22:03;2.47;;;2.07;;
20110;SDS011;10216;42.658;23.248;2023-04-01T06:24:50;4.70;;;2.70;;
20110;SDS011;10216;42.658;23.248;2023-04-01T06:32:38;2.83;;;2.37;;
20110;SDS011;10216;42.658;23.248;2023-04-01T06:45:06;2.17;;;1.57;;
20110;SDS011;10216;42.658;23.248;2023-04-01T06:55:26;2.63;;;1.50;;
20110;SDS011;10216;42.658;23.248;2023-04-01T06:57:53;2.47;;;1.70;;
20110;SDS011;10216;42.658;23.248;2023-04-01T07:02:56;3.30;;;1.83;;
20110;SDS011;10216;42.658;23.248;2023-04-01T07:05:25;5.87;;;4.80;;
20110;SDS011;10216;42.658;23.248;2023-04-01T07:07:56;3.37;;;2.77;;
20110;SDS011;10216;42.658;23.248;2023-04-01T07:10:25;2.27;;;1.80;;
20110;SDS011;10216;42.658;23.248;2023-04-01T07:12:56;4.87;;;2.30;;
20110;SDS011;10216;42.658;23.248;2023-04-01T07:15:26;1.67;;;1.40;;
20110;SDS011;10216;42.658;23.248;2023-04-01T07:17:55;3.50;;;2.20;;
20110;SDS011;10216;42.658;23.248;2023-04-01T07:20:31;15.73;;;3.07;;
20110;SDS011;10216;42.658;23.248;2023-04-01T07:22:58;2.43;;;1.73;;
20110;SDS011;10216;42.658;23.248;2023-04-01T07:25:43;3.20;;;2.20;;
20110;SDS011;10216;42.658;23.248;2023-04-01T07:28:13;3.97;;;2.27;;
20110;SDS011;10216;42.658;23.248;2023-04-01T07:36:19;3.00;;;2.00;;
20110;SDS011;10216;42.658;23.248;2023-04-01T07:44:09;3.53;;;1.83;;
20110;SDS011;10216;42.658;23.248;2023-04-01T07:54:13;2.40;;;2.00;;
20110;SDS011;10216;42.658;23.248;2023-04-01T08:01:55;3.47;;;2.10;;
20110;SDS011;10216;42.658;23.248;2023-04-01T08:07:15;4.57;;;2.93;;
20110;SDS011;10216;42.658;23.248;2023-04-01T08:15:12;3.27;;;2.37;;
20110;SDS011;10216;42.658;23.248;2023-04-01T08:17:46;2.23;;;2.00;;
20110;SDS011;10216;42.658;23.248;2023-04-01T08:20:25;3.37;;;2.60;;
20110;SDS011;10216;42.658;23.248;2023-04-01T08:23:00;3.47;;;2.57;;
20110;SDS011;10216;42.658;23.248;2023-04-01T08:25:28;3.67;;;2.27;;
20110;SDS011;10216;42.658;23.248;2023-04-01T08:27:56;4.27;;;2.33;;
20110;SDS011;10216;42.658;23.248;2023-04-01T08:30:25;2.80;;;2.00;;
20110;SDS011;10216;42.658;23.248;2023-04-01T08:35:27;2.40;;;2.10;;
20110;SDS011;10216;42.658;23.248;2023-04-01T08:37:53;4.00;;;2.67;;
20110;SDS011;10216;42.658;23.248;2023-04-01T08:43:09;10.67;;;3.03;;
20110;SDS011;10216;42.658;23.248;2023-04-01T08:48:17;3.20;;;2.60;;
20110;SDS011;10216;42.658;23.248;2023-04-01T08:53:18;6.77;;;3.10;;
20110;SDS011;10216;42.658;23.248;2023-04-01T09:01:43;2.50;;;2.07;;
20110;SDS011;10216;42.658;23.248;2023-04-01T09:06:50;2.97;;;1.93;;
20110;SDS011;10216;42.658;23.248;2023-04-01T09:38:09;1.33;;;0.70;;
20110;SDS011;10216;42.658;23.248;2023-04-01T10:03:02;4.33;;;1.07;;
20110;SDS011;10216;42.658;23.248;2023-04-01T10:13:42;3.03;;;1.10;;
20110;SDS011;10216;42.658;23.248;2023-04-01T10:42:41;0.60;;;0.60;;
20110;SDS011;10216;42.658;23.248;2023-04-01T10:45:24;0.90;;;0.83;;
20110;SDS011;10216;42.658;23.248;2023-04-01T11:07:01;0.70;;;0.70;;
20110;SDS011;10216;42.658;23.248;2023-04-01T11:09:37;0.60;;;0.60;;
20110;SDS011;10216;42.658;23.248;2023-04-01T11:20:13;0.97;;;0.57;;
20110;SDS011;10216;42.658;23.248;2023-04-01T11:25:29;17.00;;;1.37;;
20110;SDS011;10216;42.658;23.248;2023-04-01T11:31:04;0.57;;;0.57;;
20110;SDS011;10216;42.658;23.248;2023-04-01T11:33:41;0.87;;;0.80;;
20110;SDS011;10216;42.658;23.248;2023-04-01T11:46:33;1.53;;;0.90;;
20110;SDS011;10216;42.658;23.248;2023-04-01T11:51:38;3.60;;;1.20;;
20110;SDS011;10216;42.658;23.248;2023-04-01T12:07:14;1.37;;;1.27;;
20110;SDS011;10216;42.658;23.248;2023-04-01T12:09:46;2.07;;;1.13;;
20110;SDS011;10216;42.658;23.248;2023-04-01T12:14:44;1.70;;;1.10;;
20110;SDS011;10216;42.658;23.248;2023-04-01T12:53:40;2.50;;;1.90;;
20110;SDS011;10216;42.658;23.248;2023-04-01T13:01:52;2.77;;;1.77;;
20110;SDS011;10216;42.658;23.248;2023-04-01T13:25:33;0.63;;;0.63;;
20110;SDS011;10216;42.658;23.248;2023-04-01T13:33:36;0.70;;;0.67;;
20110;SDS011;10216;42.658;23.248;2023-04-01T13:43:43;0.40;;;0.40;;
20110;SDS011;10216;42.658;23.248;2023-04-01T13:51:25;1.60;;;0.50;;
20110;SDS011;10216;42.658;23.248;2023-04-01T14:12:19;2.37;;;0.60;;
20110;SDS011;10216;42.658;23.248;2023-04-01T14:15:04;0.40;;;0.40;;
20110;SDS011;10216;42.658;23.248;2023-04-01T14:33:42;0.40;;;0.40;;
20110;SDS011;10216;42.658;23.248;2023-04-01T14:51:52;0.43;;;0.43;;
20110;SDS011;10216;42.658;23.248;2023-04-01T14:54:37;1.23;;;0.80;;
20110;SDS011;10216;42.658;23.248;2023-04-01T14:57:11;0.47;;;0.47;;
20110;SDS011;10216;42.658;23.248;2023-04-01T14:59:46;0.60;;;0.60;;
20110;SDS011;10216;42.658;23.248;2023-04-01T15:07:34;0.90;;;0.70;;
20110;SDS011;10216;42.658;23.248;2023-04-01T15:12:30;17.83;;;1.50;;
20110;SDS011;10216;42.658;23.248;2023-04-01T15:25:29;1.73;;;0.63;;
20110;SDS011;10216;42.658;23.248;2023-04-01T15:28:03;3.00;;;1.70;;
20110;SDS011;10216;42.658;23.248;2023-04-01T15:30:36;1.03;;;0.80;;
20110;SDS011;10216;42.658;23.248;2023-04-01T15:41:03;1.03;;;0.60;;
20110;SDS011;10216;42.658;23.248;2023-04-01T15:43:48;1.10;;;0.80;;
20110;SDS011;10216;42.658;23.248;2023-04-01T15:59:47;0.60;;;0.60;;
20110;SDS011;10216;42.658;23.248;2023-04-01T16:04:58;1.23;;;1.10;;
20110;SDS011;10216;42.658;23.248;2023-04-01T16:12:37;2.77;;;1.77;;
20110;SDS011;10216;42.658;23.248;2023-04-01T16:20:19;0.77;;;0.60;;
20110;SDS011;10216;42.658;23.248;2023-04-01T16:22:49;1.03;;;0.50;;
20110;SDS011;10216;42.658;23.248;2023-04-01T16:30:44;2.17;;;1.50;;
20110;SDS011;10216;42.658;23.248;2023-04-01T16:51:12;1.83;;;1.17;;
20110;SDS011;10216;42.658;23.248;2023-04-01T16:53:46;2.40;;;0.80;;
20110;SDS011;10216;42.658;23.248;2023-04-01T16:58:49;0.50;;;0.50;;
20110;SDS011;10216;42.658;23.248;2023-04-01T17:01:21;0.63;;;0.40;;
20110;SDS011;10216;42.658;23.248;2023-04-01T17:03:51;0.70;;;0.60;;
20110;SDS011;10216;42.658;23.248;2023-04-01T17:11:27;0.70;;;0.63;;
20110;SDS011;10216;42.658;23.248;2023-04-01T17:21:49;1.47;;;1.00;;
20110;SDS011;10216;42.658;23.248;2023-04-01T17:45:28;1.50;;;1.33;;
20110;SDS011;10216;42.658;23.248;2023-04-01T17:50:22;0.70;;;0.70;;
20110;SDS011;10216;42.658;23.248;2023-04-01T17:57:58;0.80;;;0.70;;
20110;SDS011;10216;42.658;23.248;2023-04-01T18:00:27;1.50;;;1.30;;
20110;SDS011;10216;42.658;23.248;2023-04-01T18:05:38;1.00;;;0.67;;
20110;SDS011;10216;42.658;23.248;2023-04-01T18:18:36;1.10;;;1.00;;
20110;SDS011;10216;42.658;23.248;2023-04-01T18:23:56;1.07;;;0.97;;
20110;SDS011;10216;42.658;23.248;2023-04-01T18:26:24;0.63;;;0.60;;
20110;SDS011;10216;42.658;23.248;2023-04-01T18:29:11;3.07;;;1.40;;
20110;SDS011;10216;42.658;23.248;2023-04-01T18:31:44;1.37;;;1.00;;
20110;SDS011;10216;42.658;23.248;2023-04-01T18:37:02;1.60;;;1.13;;
20110;SDS011;10216;42.658;23.248;2023-04-01T18:39:40;2.47;;;1.17;;
20110;SDS011;10216;42.658;23.248;2023-04-01T18:44:52;1.27;;;1.03;;
20110;SDS011;10216;42.658;23.248;2023-04-01T18:50:11;1.33;;;1.23;;
20110;SDS011;10216;42.658;23.248;2023-04-01T18:52:39;1.10;;;1.10;;
20110;SDS011;10216;42.658;23.248;2023-04-01T18:55:22;1.70;;;1.13;;
20110;SDS011;10216;42.658;23.248;2023-04-01T18:57:49;1.23;;;1.13;;
20110;SDS011;10216;42.658;23.248;2023-04-01T19:02:41;1.33;;;1.00;;
20110;SDS011;10216;42.658;23.248;2023-04-01T19:05:12;2.00;;;1.43;;
20110;SDS011;10216;42.658;23.248;2023-04-01T19:07:43;0.80;;;0.80;;
20110;SDS011;10216;42.658;23.248;2023-04-01T19:13:21;1.37;;;1.10;;
20110;SDS011;10216;42.658;23.248;2023-04-01T19:18:02;1.13;;;0.67;;
20110;SDS011;10216;42.658;23.248;2023-04-01T19:25:51;1.00;;;0.93;;
20110;SDS011;10216;42.658;23.248;2023-04-01T19:28:37;1.10;;;1.00;;
20110;SDS011;10216;42.658;23.248;2023-04-01T19:36:19;1.00;;;0.90;;
20110;SDS011;10216;42.658;23.248;2023-04-01T19:39:17;0.70;;;0.70;;
20110;SDS011;10216;42.658;23.248;2023-04-01T19:41:39;1.73;;;0.80;;
20110;SDS011;10216;42.658;23.248;2023-04-01T19:46:48;0.43;;;0.43;;
20110;SDS011;10216;42.658;23.248;2023-04-01T19:57:20;0.70;;;0.70;;
20110;SDS011;10216;42.658;23.248;2023-04-01T20:00:09;0.57;;;0.57;;
20110;SDS011;10216;42.658;23.248;2023-04-01T20:07:56;0.50;;;0.50;;
20110;SDS011;10216;42.658;23.248;2023-04-01T20:10:48;0.70;;;0.70;;
20110;SDS011;10216;42.658;23.248;2023-04-01T20:13:33;0.60;;;0.60;;
20110;SDS011;10216;42.658;23.248;2023-04-01T20:16:02;0.70;;;0.70;;
20110;SDS011;10216;42.658;23.248;2023-04-01T20:18:44;0.97;;;0.87;;
20110;SDS011;10216;42.658;23.248;2023-04-01T20:23:42;0.83;;;0.83;;
20110;SDS011;10216;42.658;23.248;2023-04-01T20:26:09;0.90;;;0.90;;
20110;SDS011;10216;42.658;23.248;2023-04-01T20:28:42;1.53;;;1.00;;
20110;SDS011;10216;42.658;23.248;2023-04-01T20:31:54;1.20;;;1.10;;
20110;SDS011;10216;42.658;23.248;2023-04-01T20:44:58;2.03;;;1.00;;
20110;SDS011;10216;42.658;23.248;2023-04-01T20:52:24;1.37;;;0.90;;
20110;SDS011;10216;42.658;23.248;2023-04-01T20:57:25;1.73;;;0.97;;
20110;SDS011;10216;42.658;23.248;2023-04-01T21:00:03;1.77;;;1.20;;
20110;SDS011;10216;42.658;23.248;2023-04-01T21:10:12;2.87;;;2.50;;
20110;SDS011;10216;42.658;23.248;2023-04-01T21:15:19;2.13;;;1.90;;
20110;SDS011;10216;42.658;23.248;2023-04-01T21:20:34;2.03;;;1.80;;
20110;SDS011;10216;42.658;23.248;2023-04-01T21:23:15;0.80;;;0.80;;
20110;SDS011;10216;42.658;23.248;2023-04-01T21:33:35;0.73;;;0.73;;
20110;SDS011;10216;42.658;23.248;2023-04-01T21:41:33;0.60;;;0.60;;
20110;SDS011;10216;42.658;23.248;2023-04-01T22:04:25;0.73;;;0.50;;
20110;SDS011;10216;42.658;23.248;2023-04-01T22:07:17;0.50;;;0.40;;
20110;SDS011;10216;42.658;23.248;2023-04-01T22:12:10;1.03;;;0.90;;
20110;SDS011;10216;42.658;23.248;2023-04-01T22:14:50;1.70;;;0.70;;
20110;SDS011;10216;42.658;23.248;2023-04-01T22:23:00;1.73;;;0.80;;
20110;SDS011;10216;42.658;23.248;2023-04-01T22:28:07;0.60;;;0.50;;
20110;SDS011;10216;42.658;23.248;2023-04-01T22:31:05;2.07;;;0.77;;
20110;SDS011;10216;42.658;23.248;2023-04-01T22:38:22;0.77;;;0.50;;
20110;SDS011;10216;42.658;23.248;2023-04-01T22:40:53;0.57;;;0.50;;
20110;SDS011;10216;42.658;23.248;2023-04-01T22:43:25;2.63;;;1.00;;
20110;SDS011;10216;42.658;23.248;2023-04-01T22:48:51;2.70;;;0.83;;
20110;SDS011;10216;42.658;23.248;2023-04-01T22:56:31;0.50;;;0.50;;
20110;SDS011;10216;42.658;23.248;2023-04-01T22:59:15;0.20;;;0.20;;
20110;SDS011;10216;42.658;23.248;2023-04-01T23:01:44;0.40;;;0.40;;
20110;SDS011;10216;42.658;23.248;2023-04-01T23:04:11;0.50;;;0.50;;
20110;SDS011;10216;42.658;23.248;2023-04-01T23:06:39;0.90;;;0.40;;
20110;SDS011;10216;42.658;23.248;2023-04-01T23:09:13;0.30;;;0.30;;
20110;SDS011;10216;42.658;23.248;2023-04-01T23:16:34;0.63;;;0.47;;
20110;SDS011;10216;42.658;23.248;2023-04-01T23:21:38;0.30;;;0.30;;
20110;SDS011;10216;42.658;23.248;2023-04-01T23:24:24;0.30;;;0.30;;
20110;SDS011;10216;42.658;23.248;2023-04-01T23:29:35;0.40;;;0.40;;
20110;SDS011;10216;42.658;23.248;2023-04-01T23:32:02;0.77;;;0.53;;
20110;SDS011;10216;42.658;23.248;2023-04-01T23:36:53;0.20;;;0.20;;
20110;SDS011;10216;42.658;23.248;2023-04-01T23:41:48;0.30;;;0.30;;
20110;SDS011;10216;42.658;23.248;2023-04-01T23:44:15;0.30;;;0.30;;
20110;SDS011;10216;42.658;23.248;2023-04-01T23:46:41;0.30;;;0.30;;
20110;SDS011;10216;42.658;23.248;2023-04-01T23:49:11;0.50;;;0.50;;
20110;SDS011;10216;42.658;23.248;2023-04-01T23:51:39;0.30;;;0.30;;
20110;SDS011;10216;42.658;23.248;2023-04-01T23:54:17;0.20;;;0.20;;
20110;SDS011;10216;42.658;23.248;2023-04-01T23:56:47;0.30;;;0.27;;
20110;SDS011;10216;42.658;23.248;2023-04-01T23:59:22;0.20;;;0.20;;
